Airport View

Enter AWOS ICAO identifier for current METAR.

ex. KFNL

KBGD 041451Z AUTO 05009KT 10SM CLR 27/15 A3010 RMK AO2 SLP139 60000 T02720150 55003

4 Jul 2020 15:47

Frequency: 118.325

Phone: 806-274-7318

Other Area AWOS: KPPA - KBPC - KDUX - KAMA

TAF KAMA 041138Z 0412/0512 33009KT P6SM SCT100 BKN200 FM041700 11010G18KT P6SM FEW100 SCT300 FM042000 13008KT P6SM BKN100 PROB30 0421/0502 4SM TSRA OVC045CB